Time;durP1;ratioP1;P1;durP2;ratioP2;P2;SDS_P1;SDS_P2;PMS_P1;PMS_P2;Temp;Humidity;BMP_temperature;BMP_pressure;BME280_temperature;BME280_humidity;BME280_pressure;Samples;Min_cycle;Max_cycle;Signal;HPM_P1;HPM_P2
2023/12/22 00:02:18;;;;;;;0.45;0.40;;;;;;;7.15;89.55;98641.28;6110315;23;20022;-89
2023/12/22 00:04:44;;;;;;;0.30;0.30;;;;;;;7.17;89.01;98647.22;6110810;23;20052;-89
2023/12/22 00:07:12;;;;;;;0.30;0.30;;;;;;;7.11;90.26;98651.28;6110879;23;20045;-89
2023/12/22 00:09:38;;;;;;;0.55;0.40;;;;;;;7.11;89.51;98653.09;6095251;23;20121;-90
2023/12/22 00:12:05;;;;;;;0.32;0.30;;;;;;;7.13;88.82;98664.34;6086230;23;20097;-89
2023/12/22 00:14:32;;;;;;;1.40;0.40;;;;;;;7.10;91.05;98652.28;6039286;23;20342;-90
2023/12/22 00:16:59;;;;;;;0.28;0.28;;;;;;;7.08;93.24;98661.31;6110370;23;20056;-89
2023/12/22 00:19:26;;;;;;;1.98;0.22;;;;;;;7.07;92.56;98678.97;6062781;23;20049;-89
2023/12/22 00:21:53;;;;;;;1.20;0.30;;;;;;;7.08;93.89;98677.16;6087049;23;20053;-89
2023/12/22 00:24:19;;;;;;;0.50;0.50;;;;;;;7.09;93.73;98669.06;6086483;23;20097;-88
2023/12/22 00:26:46;;;;;;;1.88;0.40;;;;;;;7.08;93.84;98656.84;6062420;23;20042;-90
2023/12/22 00:29:13;;;;;;;2.45;0.50;;;;;;;7.08;94.19;98651.56;6111538;23;20093;-89
2023/12/22 00:31:40;;;;;;;1.23;0.50;;;;;;;7.11;92.48;98650.44;6086129;23;20038;-89
2023/12/22 00:34:07;;;;;;;3.70;0.70;;;;;;;7.10;94.28;98668.09;6087520;23;20484;-89
2023/12/22 00:36:33;;;;;;;2.15;0.45;;;;;;;7.11;93.26;98639.91;6113180;23;20022;-89
2023/12/22 00:39:00;;;;;;;5.18;1.27;;;;;;;7.10;92.64;98635.59;6112628;23;20026;-90
2023/12/22 00:41:27;;;;;;;1.55;0.40;;;;;;;7.12;92.97;98654.75;6111383;23;20034;-89
2023/12/22 00:43:54;;;;;;;2.72;0.50;;;;;;;7.09;91.91;98678.78;6110791;23;20022;-90
2023/12/22 00:46:20;;;;;;;3.90;0.30;;;;;;;7.21;89.89;98693.50;6087068;23;20097;-89
2023/12/22 00:48:47;;;;;;;1.15;0.30;;;;;;;7.10;89.19;98689.22;6111902;23;20025;-89
2023/12/22 00:51:16;;;;;;;1.20;0.20;;;;;;;7.12;89.13;98665.31;6085977;23;20021;-89
2023/12/22 00:53:43;;;;;;;0.35;0.20;;;;;;;7.07;89.19;98655.19;6087041;23;20030;-89
2023/12/22 00:56:12;;;;;;;0.38;0.35;;;;;;;7.07;89.34;98662.25;6112076;23;20026;-89
2023/12/22 00:58:40;;;;;;;1.75;0.77;;;;;;;7.01;91.21;98652.28;6040053;23;20030;-90
2023/12/22 01:01:07;;;;;;;0.85;0.20;;;;;;;7.03;92.24;98679.38;6086294;23;20026;-89
2023/12/22 01:03:33;;;;;;;0.20;0.20;;;;;;;7.06;91.92;98687.84;6063222;23;20358;-89
2023/12/22 01:06:00;;;;;;;1.13;0.40;;;;;;;6.99;92.99;98665.59;6064302;23;20044;-90
2023/12/22 01:08:27;;;;;;;0.77;0.20;;;;;;;7.03;93.46;98652.97;6064029;23;20096;-90
2023/12/22 01:10:54;;;;;;;1.67;0.45;;;;;;;7.05;94.42;98669.50;6063246;23;20106;-88
2023/12/22 01:13:21;;;;;;;0.73;0.28;;;;;;;7.05;94.56;98649.22;6111984;23;20018;-88
2023/12/22 01:15:48;;;;;;;0.63;0.40;;;;;;;7.02;94.98;98638.97;6089204;23;20026;-89
2023/12/22 01:18:15;;;;;;;1.13;0.60;;;;;;;7.03;95.08;98645.06;6065596;23;20037;-89
2023/12/22 01:20:42;;;;;;;0.75;0.30;;;;;;;7.05;94.98;98653.69;6089074;23;20022;-89
2023/12/22 01:23:08;;;;;;;0.45;0.30;;;;;;;7.04;95.60;98654.63;6113239;23;20029;-88
2023/12/22 01:25:35;;;;;;;3.40;0.40;;;;;;;7.02;96.12;98664.50;6116499;23;20352;-89
2023/12/22 01:28:02;;;;;;;2.38;0.40;;;;;;;7.05;96.33;98683.53;6041646;23;20030;-90
2023/12/22 01:30:32;;;;;;;0.30;0.30;;;;;;;7.09;96.23;98650.59;6090219;23;20030;-88
2023/12/22 01:32:58;;;;;;;0.30;0.30;;;;;;;7.12;95.85;98628.34;6065646;23;20033;-87
2023/12/22 01:35:26;;;;;;;0.35;0.30;;;;;;;7.13;95.85;98624.75;6066015;23;20457;-89
2023/12/22 01:37:54;;;;;;;1.02;0.30;;;;;;;7.16;95.48;98612.09;6113358;23;20057;-88
2023/12/22 01:40:21;;;;;;;0.40;0.40;;;;;;;7.15;95.18;98610.44;6088829;23;20032;-89
2023/12/22 01:42:48;;;;;;;1.77;0.70;;;;;;;7.16;94.59;98624.47;6066387;23;20017;-90
2023/12/22 01:45:15;;;;;;;0.85;0.50;;;;;;;7.11;95.20;98643.38;6113412;23;20045;-90
2023/12/22 01:47:42;;;;;;;1.65;0.40;;;;;;;7.14;94.93;98639.59;6041949;23;20030;-89
2023/12/22 01:50:10;;;;;;;0.88;0.40;;;;;;;7.15;94.93;98636.00;6088919;23;20033;-89
2023/12/22 01:52:39;;;;;;;1.45;0.50;;;;;;;7.16;94.68;98621.81;6089070;23;20491;-92
2023/12/22 01:55:07;;;;;;;5.93;0.70;;;;;;;7.16;94.56;98601.53;6088209;23;20025;-91
2023/12/22 01:57:35;;;;;;;0.75;0.47;;;;;;;7.18;94.41;98588.19;6088865;23;20491;-88
2023/12/22 02:00:03;;;;;;;1.13;0.70;;;;;;;7.15;94.61;98581.41;6065041;23;20033;-89
2023/12/22 02:02:38;;;;;;;0.90;0.60;;;;;;;7.15;94.12;98578.75;6112153;23;20034;-91
2023/12/22 02:05:06;;;;;;;0.63;0.60;;;;;;;7.15;94.22;98586.69;6064482;23;20033;-90
2023/12/22 02:07:32;;;;;;;3.50;0.50;;;;;;;7.17;94.03;98629.59;6065238;23;20523;-90
2023/12/22 02:09:59;;;;;;;1.20;0.50;;;;;;;7.21;94.41;98595.00;6089441;23;20048;-88
2023/12/22 02:12:26;;;;;;;2.88;0.70;;;;;;;7.20;94.58;98586.25;6065383;23;20357;-90
2023/12/22 02:14:53;;;;;;;3.28;0.57;;;;;;;7.20;94.43;98619.72;6064094;23;20032;-91
2023/12/22 02:17:42;;;;;;;4.18;0.47;;;;;;;6.99;94.87;98635.75;6093046;23;20026;-89
2023/12/22 02:20:09;;;;;;;3.97;0.70;;;;;;;7.11;94.12;98611.69;6086032;23;20691;-90
2023/12/22 02:22:36;;;;;;;2.03;0.68;;;;;;;7.07;94.59;98609.47;6089122;23;20639;-91
2023/12/22 02:25:03;;;;;;;3.85;0.75;;;;;;;7.11;95.42;98613.50;6063661;23;20025;-89
2023/12/22 02:27:37;;;;;;;2.42;0.73;;;;;;;7.12;95.35;98613.38;6064126;23;20028;-90
2023/12/22 02:30:26;;;;;;;6.00;0.80;;;;;;;7.08;95.61;98616.44;6048202;23;20057;-90
2023/12/22 02:32:56;;;;;;;0.80;0.70;;;;;;;7.17;95.48;98611.13;6086953;23;20026;-90
2023/12/22 02:35:25;;;;;;;2.42;0.75;;;;;;;7.17;96.08;98615.53;6044157;23;20030;-90
2023/12/22 02:37:53;;;;;;;12.40;1.23;;;;;;;7.16;96.55;98596.25;6067839;23;20076;-89
2023/12/22 02:40:20;;;;;;;3.50;0.90;;;;;;;7.15;97.54;98596.41;6041608;23;20353;-88
2023/12/22 02:42:47;;;;;;;2.63;0.82;;;;;;;7.20;97.19;98599.44;6088168;23;20029;-90
2023/12/22 02:45:16;;;;;;;5.57;0.80;;;;;;;7.18;97.89;98612.78;6065116;23;20030;-90
2023/12/22 02:47:43;;;;;;;5.53;0.82;;;;;;;7.21;98.27;98611.66;6063509;23;20096;-86
2023/12/22 02:50:12;;;;;;;2.05;0.80;;;;;;;7.25;98.10;98631.53;6064974;23;20026;-90
2023/12/22 02:52:38;;;;;;;5.40;1.30;;;;;;;7.28;97.89;98640.97;6064636;23;20101;-89
2023/12/22 02:55:06;;;;;;;6.70;1.23;;;;;;;7.25;97.29;98639.44;6087596;23;20041;-89
2023/12/22 02:57:33;;;;;;;6.05;1.00;;;;;;;7.27;98.15;98653.31;6065504;23;20018;-90
2023/12/22 03:00:00;;;;;;;7.57;1.00;;;;;;;7.30;98.00;98634.56;6065091;23;20026;-88
2023/12/22 03:02:27;;;;;;;6.65;1.20;;;;;;;7.34;97.94;98621.91;6063974;23;20029;-88
2023/12/22 03:04:54;;;;;;;5.68;1.27;;;;;;;7.34;97.86;98620.06;6089456;23;20027;-90
2023/12/22 03:07:21;;;;;;;5.53;1.52;;;;;;;7.33;97.95;98634.28;6040406;23;20021;-89
2023/12/22 03:09:48;;;;;;;5.70;1.13;;;;;;;7.36;97.21;98651.63;6064317;23;20026;-88
2023/12/22 03:12:15;;;;;;;5.35;2.63;;;;;;;7.36;96.88;98662.19;6112701;23;20101;-89
2023/12/22 03:14:42;;;;;;;5.75;1.45;;;;;;;7.36;97.09;98644.53;6064114;23;20540;-90
2023/12/22 03:17:10;;;;;;;5.47;1.05;;;;;;;7.41;96.10;98659.97;6064212;23;20049;-90
2023/12/22 03:19:37;;;;;;;4.35;1.83;;;;;;;7.40;96.71;98676.75;6041198;23;20751;-90
2023/12/22 03:22:04;;;;;;;4.10;1.13;;;;;;;7.21;95.55;98669.75;6063611;23;20851;-89
2023/12/22 03:24:31;;;;;;;8.48;1.30;;;;;;;7.31;96.57;98657.34;6039975;23;20081;-89
2023/12/22 03:26:58;;;;;;;7.43;1.60;;;;;;;7.28;95.31;98667.38;6120401;23;20377;-89
2023/12/22 03:29:25;;;;;;;5.32;1.23;;;;;;;7.22;92.37;98681.94;6088018;23;20353;-88
2023/12/22 03:31:51;;;;;;;6.55;1.23;;;;;;;7.25;92.42;98673.78;6086798;23;20089;-87
2023/12/22 03:34:18;;;;;;;2.42;0.95;;;;;;;7.19;92.62;98684.88;6111470;23;20077;-89
2023/12/22 03:36:48;;;;;;;8.32;1.23;;;;;;;7.10;92.89;98680.47;6110937;23;20050;-88
2023/12/22 03:39:15;;;;;;;8.00;1.10;;;;;;;7.16;93.83;98661.41;6111395;23;20026;-89
2023/12/22 03:41:42;;;;;;;5.05;1.15;;;;;;;7.17;95.11;98652.50;6063936;23;20060;-89
2023/12/22 03:44:09;;;;;;;6.13;0.90;;;;;;;7.18;96.31;98655.03;6111976;23;20022;-88
2023/12/22 03:46:36;;;;;;;4.65;1.00;;;;;;;7.14;97.62;98650.16;6093473;23;20022;-89
2023/12/22 03:49:03;;;;;;;3.40;0.80;;;;;;;7.16;97.97;98637.66;6113114;23;22451;-89
2023/12/22 03:51:30;;;;;;;5.90;1.27;;;;;;;7.17;97.78;98626.09;6112293;23;20022;-90
2023/12/22 03:53:57;;;;;;;4.82;1.27;;;;;;;7.21;97.54;98630.13;6112199;23;20100;-89
2023/12/22 03:56:23;;;;;;;3.22;0.90;;;;;;;7.19;98.04;98618.88;6065199;23;20037;-89
2023/12/22 03:58:50;;;;;;;6.15;1.00;;;;;;;7.15;98.61;98621.00;6064409;23;20097;-90
2023/12/22 04:01:17;;;;;;;5.20;0.75;;;;;;;7.13;98.33;98615.03;6064180;23;20025;-88
2023/12/22 04:03:44;;;;;;;2.67;0.73;;;;;;;7.13;98.66;98615.03;6088843;23;20736;-90
2023/12/22 04:06:11;;;;;;;3.53;0.90;;;;;;;7.15;98.86;98614.88;6088187;23;20018;-88
2023/12/22 04:08:38;;;;;;;3.80;1.17;;;;;;;7.15;98.93;98612.25;6063499;23;20085;-89
2023/12/22 04:11:05;;;;;;;7.90;1.17;;;;;;;7.16;98.59;98613.91;6087779;23;20022;-89
2023/12/22 04:13:31;;;;;;;3.83;1.10;;;;;;;7.16;98.75;98630.56;6063875;23;20468;-90
2023/12/22 04:15:59;;;;;;;6.50;0.98;;;;;;;7.16;100.00;98622.66;6087367;23;20030;-90
2023/12/22 04:18:25;;;;;;;5.15;1.05;;;;;;;7.17;100.00;98618.19;6088115;23;20025;-89
2023/12/22 04:20:55;;;;;;;5.53;1.30;;;;;;;7.13;100.00;98601.00;6063412;23;20096;-90
2023/12/22 04:23:22;;;;;;;5.43;2.17;;;;;;;7.00;100.00;98596.03;6112817;23;20030;-89
2023/12/22 04:25:49;;;;;;;6.15;1.27;;;;;;;7.15;100.00;98583.22;6087933;23;20025;-90
2023/12/22 04:28:16;;;;;;;9.05;1.70;;;;;;;7.17;100.00;98600.56;6040206;23;20048;-90
2023/12/22 04:30:43;;;;;;;11.02;1.63;;;;;;;7.20;100.00;98602.09;6063304;23;20026;-90
2023/12/22 04:33:09;;;;;;;9.85;2.00;;;;;;;7.24;100.00;98598.16;6040403;23;20045;-89
2023/12/22 04:35:36;;;;;;;6.93;2.13;;;;;;;7.20;100.00;98598.59;6088194;23;20079;-90
2023/12/22 04:38:03;;;;;;;9.25;1.50;;;;;;;7.24;100.00;98614.00;6063635;23;20022;-89
2023/12/22 04:40:30;;;;;;;4.38;1.35;;;;;;;7.24;100.00;98624.56;6064239;23;20226;-89
2023/12/22 04:42:57;;;;;;;8.40;2.38;;;;;;;7.28;100.00;98628.59;6063679;23;20378;-89
2023/12/22 04:45:24;;;;;;;4.45;1.52;;;;;;;7.29;100.00;98629.41;6038717;23;20025;-90
2023/12/22 04:47:51;;;;;;;8.00;1.75;;;;;;;7.29;99.11;98640.81;6064164;23;20171;-91
2023/12/22 04:50:19;;;;;;;8.85;2.10;;;;;;;7.26;100.00;98671.97;6065246;23;20025;-91
2023/12/22 04:52:46;;;;;;;7.05;1.88;;;;;;;7.28;99.78;98684.03;6088818;23;20056;-89
2023/12/22 04:55:13;;;;;;;8.20;1.85;;;;;;;7.28;99.98;98701.69;6066080;23;20468;-89
2023/12/22 04:57:40;;;;;;;6.93;1.73;;;;;;;7.28;100.00;98699.88;6089919;23;20109;-89
2023/12/22 05:00:07;;;;;;;12.98;2.13;;;;;;;7.30;100.00;98687.38;6090151;23;20034;-88
2023/12/22 05:02:34;;;;;;;18.08;2.22;;;;;;;7.32;100.00;98685.41;6089612;23;20410;-90
2023/12/22 05:05:03;;;;;;;7.20;1.50;;;;;;;7.34;98.91;98704.59;6090089;23;20028;-89
2023/12/22 05:07:30;;;;;;;8.55;1.50;;;;;;;7.41;98.96;98704.03;6090215;23;20250;-89
2023/12/22 05:09:57;;;;;;;7.65;1.40;;;;;;;7.37;99.17;98700.81;6041891;23;20045;-90
2023/12/22 05:12:24;;;;;;;8.05;1.73;;;;;;;7.37;99.25;98692.91;6114268;23;20048;-90
2023/12/22 05:14:51;;;;;;;10.70;1.70;;;;;;;7.42;99.61;98698.59;6112962;23;20053;-89
2023/12/22 05:17:18;;;;;;;11.82;2.75;;;;;;;7.40;99.82;98692.59;6113106;23;20040;-90
2023/12/22 05:19:44;;;;;;;8.68;2.10;;;;;;;7.40;99.31;98676.75;6065546;23;20476;-89
2023/12/22 05:22:11;;;;;;;10.80;1.70;;;;;;;7.38;99.70;98670.81;6064788;23;20030;-89
2023/12/22 05:24:38;;;;;;;6.82;1.92;;;;;;;7.38;100.00;98666.38;6093132;23;20022;-91
2023/12/22 05:27:05;;;;;;;10.35;1.67;;;;;;;7.37;100.00;98669.13;6071152;23;20028;-89
2023/12/22 05:29:32;;;;;;;11.30;2.47;;;;;;;7.41;100.00;98685.53;6065004;23;20077;-90
2023/12/22 05:31:59;;;;;;;10.45;1.75;;;;;;;7.41;100.00;98691.66;6088417;23;20029;-88
2023/12/22 05:34:27;;;;;;;6.47;1.35;;;;;;;7.38;100.00;98692.78;6088940;23;20136;-89
2023/12/22 05:36:53;;;;;;;7.65;1.30;;;;;;;7.39;100.00;98697.06;6065443;23;20045;-88
2023/12/22 05:39:20;;;;;;;5.63;1.58;;;;;;;7.40;100.00;98703.16;6088465;23;20049;-87
2023/12/22 05:41:47;;;;;;;9.52;1.67;;;;;;;7.43;99.50;98715.25;6066679;23;20030;-89
2023/12/22 05:44:15;;;;;;;10.38;1.58;;;;;;;7.40;99.66;98684.69;6089062;23;20096;-88
2023/12/22 05:46:41;;;;;;;5.65;1.48;;;;;;;7.41;99.25;98693.47;6113248;23;20066;-88
2023/12/22 05:49:08;;;;;;;6.40;1.20;;;;;;;7.44;99.29;98667.59;6090707;23;20473;-88
2023/12/22 05:51:37;;;;;;;7.90;1.35;;;;;;;7.45;99.35;98661.31;6041865;23;20026;-90
2023/12/22 05:54:05;;;;;;;10.05;1.33;;;;;;;7.46;99.47;98665.63;6040588;23;20109;-89
2023/12/22 05:56:33;;;;;;;5.03;1.25;;;;;;;7.45;99.19;98653.38;6064953;23;20021;-89
2023/12/22 05:59:00;;;;;;;11.98;1.98;;;;;;;7.46;99.29;98683.31;6064263;23;20209;-89
2023/12/22 06:01:27;;;;;;;6.40;1.38;;;;;;;7.42;100.00;98687.19;6093522;23;20026;-91
2023/12/22 06:03:54;;;;;;;12.73;1.75;;;;;;;7.33;99.66;98724.06;6088476;23;20307;-89
2023/12/22 06:06:22;;;;;;;4.30;1.38;;;;;;;7.33;99.46;98736.44;6089052;23;20389;-90
2023/12/22 06:08:49;;;;;;;9.02;2.20;;;;;;;7.24;100.00;98732.81;6088886;23;20022;-89
2023/12/22 06:11:16;;;;;;;6.95;1.88;;;;;;;7.27;100.00;98743.09;6112592;23;20452;-89
2023/12/22 06:13:42;;;;;;;18.95;2.40;;;;;;;7.28;100.00;98733.38;6065345;23;20021;-88
2023/12/22 06:16:14;;;;;;;7.13;1.83;;;;;;;7.33;99.54;98734.63;6087939;23;20657;-88
2023/12/22 06:18:41;;;;;;;9.00;3.00;;;;;;;7.35;100.00;98731.81;6064221;23;20381;-89
2023/12/22 06:21:09;;;;;;;8.57;1.58;;;;;;;7.36;100.00;98750.19;6063878;23;20033;-88
2023/12/22 06:23:36;;;;;;;6.90;2.13;;;;;;;7.37;100.00;98751.00;6088104;23;20025;-90
2023/12/22 06:26:10;;;;;;;2.63;1.17;;;;;;;7.36;100.00;98759.91;6064242;23;20026;-89
2023/12/22 06:28:39;;;;;;;8.32;1.75;;;;;;;7.42;100.00;98761.97;6112062;23;20037;-89
2023/12/22 06:31:18;;;;;;;6.80;1.58;;;;;;;7.33;99.85;98758.38;6064479;23;20478;-89
2023/12/22 06:33:46;;;;;;;8.23;2.85;;;;;;;7.36;100.00;98742.25;6039867;23;20064;-90
2023/12/22 06:36:22;;;;;;;6.13;2.03;;;;;;;7.35;100.00;98752.94;6088429;23;20045;-90
2023/12/22 06:38:57;;;;;;;6.55;2.75;;;;;;;7.37;100.00;98743.91;6063638;23;20036;-89
2023/12/22 06:41:26;;;;;;;10.70;1.73;;;;;;;7.39;100.00;98749.88;6121693;23;20030;-90
2023/12/22 06:43:54;;;;;;;8.90;1.50;;;;;;;7.36;100.00;98730.84;6063321;23;20469;-90
2023/12/22 06:46:23;;;;;;;7.35;2.30;;;;;;;7.39;100.00;98751.69;6087515;23;20045;-89
2023/12/22 06:48:50;;;;;;;7.18;1.77;;;;;;;7.38;100.00;98750.03;6064357;23;20022;-89
2023/12/22 06:51:22;;;;;;;14.43;2.17;;;;;;;7.37;100.00;98757.09;6111885;23;20045;-89
2023/12/22 06:53:49;;;;;;;14.75;2.50;;;;;;;7.37;100.00;98758.94;6064044;23;20030;-90
2023/12/22 06:56:27;;;;;;;7.03;1.70;;;;;;;7.36;100.00;98767.84;6063906;23;20030;-89
2023/12/22 06:58:57;;;;;;;11.38;1.85;;;;;;;7.40;100.00;98763.91;6087000;23;20017;-92
2023/12/22 07:01:29;;;;;;;8.50;2.10;;;;;;;7.46;100.00;98775.75;6040327;23;20033;-90
2023/12/22 07:03:57;;;;;;;9.68;2.40;;;;;;;7.47;100.00;98782.69;6087555;23;20045;-90
2023/12/22 07:06:27;;;;;;;15.20;2.10;;;;;;;7.46;98.33;98781.84;6087156;23;20048;-88
2023/12/22 07:09:19;;;;;;;14.40;2.92;;;;;;;7.39;98.63;98771.00;6066250;23;20412;-89
2023/12/22 07:11:51;;;;;;;15.60;3.40;;;;;;;7.46;99.04;98779.22;6131535;23;20026;-90
2023/12/22 07:14:17;;;;;;;15.80;2.17;;;;;;;7.43;99.29;98768.94;6111649;23;20057;-90
2023/12/22 07:16:44;;;;;;;18.10;3.20;;;;;;;7.47;98.67;98794.06;6088451;23;20122;-90
2023/12/22 07:19:14;;;;;;;9.05;1.40;;;;;;;7.52;98.38;98805.06;6064135;23;20092;-90
2023/12/22 07:21:41;;;;;;;9.98;1.83;;;;;;;7.51;98.10;98789.34;6111568;23;20036;-90
2023/12/22 07:24:12;;;;;;;10.60;1.88;;;;;;;7.51;98.97;98795.47;6088681;23;20021;-90
2023/12/22 07:26:44;;;;;;;14.35;2.30;;;;;;;7.47;99.00;98775.59;6063623;23;20029;-91
2023/12/22 07:29:11;;;;;;;10.55;2.03;;;;;;;7.51;99.47;98792.00;6112411;23;20030;-90
2023/12/22 07:31:38;;;;;;;12.63;2.05;;;;;;;7.50;99.00;98801.72;6063964;23;20540;-89
2023/12/22 07:34:05;;;;;;;23.80;2.92;;;;;;;7.53;99.01;98817.31;6064309;23;20018;-89
2023/12/22 07:36:35;;;;;;;9.73;2.33;;;;;;;7.51;98.54;98823.69;6071111;23;20040;-90
2023/12/22 07:39:11;;;;;;;16.42;3.75;;;;;;;7.53;98.61;98834.94;6089348;23;20025;-90
2023/12/22 07:41:38;;;;;;;15.52;2.67;;;;;;;7.56;97.84;98847.88;6040390;23;20022;-88
2023/12/22 07:44:05;;;;;;;17.20;2.95;;;;;;;7.55;98.21;98852.31;6039419;23;20101;-90
2023/12/22 07:46:34;;;;;;;13.68;2.42;;;;;;;7.58;98.15;98838.00;6078390;23;20030;-90
2023/12/22 07:49:00;;;;;;;12.48;2.10;;;;;;;7.54;98.41;98848.00;6063674;23;20033;-90
2023/12/22 07:51:28;;;;;;;13.73;2.60;;;;;;;7.56;98.38;98855.81;6040110;23;20113;-90
2023/12/22 07:53:55;;;;;;;13.18;2.60;;;;;;;7.57;98.28;98868.03;6085858;23;20718;-91
2023/12/22 07:56:22;;;;;;;12.27;2.90;;;;;;;7.55;98.75;98867.34;6062914;23;20045;-91
2023/12/22 07:58:49;;;;;;;13.73;2.22;;;;;;;7.57;98.34;98868.88;6063885;23;20018;-90
2023/12/22 08:01:16;;;;;;;6.88;1.75;;;;;;;7.58;97.77;98873.19;6086790;23;20040;-90
2023/12/22 08:03:44;;;;;;;5.90;1.40;;;;;;;7.57;94.69;98876.78;6087477;23;20049;-90
2023/12/22 08:06:12;;;;;;;10.27;1.48;;;;;;;7.58;95.48;98867.03;6040052;23;20077;-90
2023/12/22 08:08:39;;;;;;;14.20;2.70;;;;;;;7.60;95.96;98873.03;6063099;23;20021;-91
2023/12/22 08:11:08;;;;;;;12.40;2.85;;;;;;;7.57;95.64;98874.16;6090947;23;20034;-91
2023/12/22 08:13:35;;;;;;;10.23;1.70;;;;;;;7.60;95.12;98891.53;6062725;23;20030;-89
2023/12/22 08:16:02;;;;;;;10.73;1.65;;;;;;;7.60;95.44;98887.06;6064113;23;20076;-90
2023/12/22 08:18:30;;;;;;;13.00;2.38;;;;;;;7.63;94.96;98885.94;6038703;23;20029;-89
2023/12/22 08:20:59;;;;;;;9.52;1.77;;;;;;;7.58;94.34;98882.91;6039242;23;20393;-91
2023/12/22 08:23:33;;;;;;;11.82;1.85;;;;;;;7.64;94.49;98887.63;6085038;23;20100;-92
2023/12/22 08:26:10;;;;;;;6.00;1.38;;;;;;;7.64;94.51;98881.53;6042728;23;20018;-92
2023/12/22 08:28:37;;;;;;;5.30;1.20;;;;;;;7.65;94.49;98872.63;6038276;23;20021;-91
2023/12/22 08:31:06;;;;;;;7.57;1.50;;;;;;;7.66;94.49;98871.63;6040100;23;20028;-91
2023/12/22 08:33:33;;;;;;;7.90;1.23;;;;;;;7.63;94.73;98867.47;6062790;23;20026;-88
2023/12/22 08:36:00;;;;;;;4.55;1.88;;;;;;;7.65;94.85;98880.53;6061977;23;20484;-90
2023/12/22 08:38:27;;;;;;;6.30;1.40;;;;;;;7.62;94.74;98884.28;6062630;23;20030;-91
2023/12/22 08:40:54;;;;;;;8.38;1.17;;;;;;;7.67;95.08;98874.16;6040554;23;20025;-91
2023/12/22 08:43:26;;;;;;;2.63;1.20;;;;;;;7.67;95.22;98871.50;6063962;23;20077;-91
2023/12/22 08:45:53;;;;;;;3.45;0.77;;;;;;;7.69;95.46;98869.56;6072174;23;20380;-89
2023/12/22 08:48:20;;;;;;;3.88;1.27;;;;;;;7.67;95.46;98894.44;6042768;23;20022;-91
2023/12/22 08:50:47;;;;;;;2.53;0.90;;;;;;;7.65;95.52;98884.00;6064909;23;20054;-88
2023/12/22 08:53:14;;;;;;;3.88;1.73;;;;;;;7.66;95.73;98872.47;6069314;23;20026;-90
2023/12/22 08:55:41;;;;;;;7.28;2.00;;;;;;;7.70;95.86;98886.25;6064103;23;20487;-90
2023/12/22 08:58:08;;;;;;;7.25;1.55;;;;;;;7.68;96.16;98893.47;6087619;23;20026;-89
2023/12/22 09:00:36;;;;;;;10.65;1.50;;;;;;;7.67;96.47;98902.38;6039903;23;20022;-89
2023/12/22 09:03:03;;;;;;;11.18;1.20;;;;;;;7.70;96.89;98910.03;6040388;23;20072;-90
2023/12/22 09:05:30;;;;;;;5.38;1.35;;;;;;;7.67;97.68;98890.00;6064169;23;20026;-91
2023/12/22 09:07:57;;;;;;;2.67;0.93;;;;;;;7.70;97.92;98886.25;6087779;23;20033;-89
2023/12/22 09:10:25;;;;;;;8.43;2.55;;;;;;;7.69;98.41;98874.84;6088188;23;20512;-89
2023/12/22 09:12:52;;;;;;;7.93;1.38;;;;;;;7.70;98.67;98880.94;6112147;23;20053;-89
2023/12/22 09:15:19;;;;;;;8.02;1.30;;;;;;;7.70;98.86;98895.00;6111395;23;20101;-89
2023/12/22 09:17:45;;;;;;;8.60;1.75;;;;;;;7.68;99.23;98896.09;6087899;23;20033;-90
2023/12/22 09:20:12;;;;;;;5.18;1.90;;;;;;;7.67;99.45;98905.03;6042248;23;20026;-89
2023/12/22 09:22:39;;;;;;;9.13;3.25;;;;;;;7.72;99.56;98908.91;6063783;23;20082;-89
2023/12/22 09:25:08;;;;;;;9.95;2.15;;;;;;;7.68;100.00;98909.31;6087518;23;20014;-91
2023/12/22 09:27:35;;;;;;;10.60;2.28;;;;;;;7.68;99.70;98909.31;6041024;23;20076;-91
2023/12/22 09:30:04;;;;;;;12.55;2.40;;;;;;;7.70;100.00;98907.38;6064252;23;20469;-91
2023/12/22 09:32:31;;;;;;;10.05;2.25;;;;;;;7.67;100.00;98900.56;6112167;23;20033;-89
2023/12/22 09:35:00;;;;;;;20.73;3.10;;;;;;;7.65;100.00;98912.25;6120151;23;20073;-90
2023/12/22 09:37:27;;;;;;;12.13;2.53;;;;;;;7.63;100.00;98891.25;6066390;23;20052;-89
2023/12/22 09:39:54;;;;;;;17.60;2.83;;;;;;;7.66;100.00;98898.06;6066355;23;20028;-89
2023/12/22 09:42:21;;;;;;;12.60;2.50;;;;;;;7.68;100.00;98896.94;6065551;23;20030;-88
2023/12/22 09:44:49;;;;;;;10.77;2.15;;;;;;;7.68;100.00;98885.53;6041739;23;20491;-90
2023/12/22 09:47:17;;;;;;;10.25;2.45;;;;;;;7.66;100.00;98875.13;6089772;23;20034;-89
2023/12/22 09:49:44;;;;;;;13.05;2.25;;;;;;;7.68;100.00;98882.91;6089293;23;20527;-89
2023/12/22 09:52:12;;;;;;;11.07;3.70;;;;;;;7.70;100.00;98883.59;6090629;23;20457;-89
2023/12/22 09:54:40;;;;;;;11.13;3.08;;;;;;;7.71;100.00;98888.75;6114674;23;20026;-89
2023/12/22 09:57:06;;;;;;;16.90;3.95;;;;;;;7.68;100.00;98875.78;6072748;23;20026;-91
2023/12/22 09:59:49;;;;;;;14.75;3.40;;;;;;;7.71;100.00;98879.97;6093002;23;20113;-90
2023/12/22 10:02:16;;;;;;;19.20;4.15;;;;;;;7.68;100.00;98875.78;6089632;23;20032;-89
2023/12/22 10:04:43;;;;;;;14.00;3.40;;;;;;;7.69;100.00;98888.06;6065516;23;20037;-89
2023/12/22 10:07:13;;;;;;;24.85;4.53;;;;;;;7.75;100.00;98884.00;6064729;23;20030;-90
2023/12/22 10:09:41;;;;;;;12.77;3.47;;;;;;;7.74;100.00;98875.25;6120372;23;20048;-89
2023/12/22 10:12:09;;;;;;;23.67;3.97;;;;;;;7.73;100.00;98870.91;6034713;23;20033;-90
2023/12/22 10:14:37;;;;;;;21.77;4.05;;;;;;;7.74;100.00;98877.06;6118962;23;20040;-90
2023/12/22 10:17:06;;;;;;;14.25;3.92;;;;;;;7.74;100.00;98866.50;6041957;23;20030;-90
2023/12/22 10:19:33;;;;;;;20.38;3.47;;;;;;;7.76;100.00;98878.59;6087410;23;20469;-90
2023/12/22 10:22:00;;;;;;;12.68;3.50;;;;;;;7.76;100.00;98873.31;6063740;23;20097;-92
2023/12/22 10:24:46;;;;;;;34.45;5.45;;;;;;;7.74;100.00;98877.06;6088517;23;20025;-90
2023/12/22 10:27:14;;;;;;;13.90;3.60;;;;;;;7.75;100.00;98884.84;6064208;23;20026;-90
2023/12/22 10:29:41;;;;;;;21.33;4.53;;;;;;;7.77;100.00;98895.28;6112580;23;20052;-90
2023/12/22 10:32:08;;;;;;;20.33;4.15;;;;;;;7.78;100.00;98884.53;6041804;23;20017;-90
2023/12/22 10:34:36;;;;;;;14.60;3.40;;;;;;;7.77;100.00;98882.06;6112743;23;20032;-91
2023/12/22 10:37:04;;;;;;;17.90;4.45;;;;;;;7.76;100.00;98875.09;6064845;23;20077;-90
2023/12/22 10:39:31;;;;;;;20.77;3.38;;;;;;;7.80;100.00;98858.81;6041052;23;20130;-89
2023/12/22 10:41:59;;;;;;;28.20;5.10;;;;;;;7.79;100.00;98854.53;6088895;23;20080;-91
2023/12/22 10:44:26;;;;;;;36.58;5.10;;;;;;;7.76;100.00;98846.03;6064271;23;20021;-91
2023/12/22 10:46:54;;;;;;;19.80;5.25;;;;;;;7.77;100.00;98837.97;6040228;23;20026;-92
2023/12/22 10:49:22;;;;;;;19.75;4.35;;;;;;;7.80;100.00;98831.56;6065505;23;20050;-91
2023/12/22 10:51:50;;;;;;;25.10;4.90;;;;;;;7.81;100.00;98826.16;6040143;23;20561;-90
2023/12/22 10:54:19;;;;;;;19.02;3.03;;;;;;;7.83;100.00;98816.25;6087822;23;20060;-90
2023/12/22 10:56:46;;;;;;;31.40;4.72;;;;;;;7.83;100.00;98812.78;6064264;23;20097;-91
2023/12/22 10:59:16;;;;;;;26.73;4.28;;;;;;;7.78;100.00;98818.47;6041744;23;20021;-91
2023/12/22 11:01:45;;;;;;;23.65;4.95;;;;;;;7.82;100.00;98821.69;6113113;23;20030;-90
2023/12/22 11:04:17;;;;;;;16.63;3.35;;;;;;;7.81;100.00;98804.13;6064582;23;20033;-91
2023/12/22 11:06:44;;;;;;;26.70;4.68;;;;;;;7.81;100.00;98802.34;6087864;23;20025;-90
2023/12/22 11:09:13;;;;;;;26.23;3.70;;;;;;;7.83;100.00;98805.66;6088796;23;20323;-90
2023/12/22 11:11:40;;;;;;;20.15;3.25;;;;;;;7.87;100.00;98806.22;6040642;23;20080;-91
2023/12/22 11:14:07;;;;;;;29.30;4.15;;;;;;;7.89;100.00;98800.81;6064395;23;20033;-90
2023/12/22 11:16:36;;;;;;;25.15;3.97;;;;;;;7.90;100.00;98792.72;6089557;23;20022;-90
2023/12/22 11:19:04;;;;;;;31.92;5.55;;;;;;;7.87;100.00;98787.72;6088115;23;20353;-90
2023/12/22 11:21:31;;;;;;;19.65;4.07;;;;;;;7.88;100.00;98780.63;6088153;23;20025;-91
2023/12/22 11:23:58;;;;;;;38.38;4.00;;;;;;;7.85;100.00;98779.09;6088617;23;20037;-90
2023/12/22 11:26:25;;;;;;;35.88;5.10;;;;;;;7.86;100.00;98770.22;6112047;23;20360;-89
2023/12/22 11:28:52;;;;;;;23.85;3.58;;;;;;;7.88;100.00;98772.69;6064819;23;20026;-90
2023/12/22 11:31:20;;;;;;;32.92;5.05;;;;;;;7.83;100.00;98758.09;6063515;23;20014;-89
2023/12/22 11:33:50;;;;;;;29.48;4.07;;;;;;;7.90;100.00;98765.47;6088307;23;20021;-90
2023/12/22 11:36:31;;;;;;;20.60;3.58;;;;;;;7.90;100.00;98774.22;6090910;23;20029;-90
2023/12/22 11:38:58;;;;;;;13.27;3.15;;;;;;;7.87;100.00;98753.38;6112525;23;20028;-90
2023/12/22 11:41:27;;;;;;;19.33;3.40;;;;;;;7.86;100.00;98745.56;6087920;23;20026;-90